sensor_id;sensor_type;location;lat;lon;timestamp;temperature;humidity
8103;DHT22;4094;49.948;11.574;2023-02-15T00:01:49;4.30;74.00
8103;DHT22;4094;49.948;11.574;2023-02-15T00:04:22;4.30;73.90
8103;DHT22;4094;49.948;11.574;2023-02-15T00:06:51;4.30;74.00
8103;DHT22;4094;49.948;11.574;2023-02-15T00:09:20;4.20;73.90
8103;DHT22;4094;49.948;11.574;2023-02-15T00:11:48;4.20;73.90
8103;DHT22;4094;49.948;11.574;2023-02-15T00:14:21;4.20;73.90
8103;DHT22;4094;49.948;11.574;2023-02-15T00:16:51;4.20;74.00
8103;DHT22;4094;49.948;11.574;2023-02-15T00:19:21;4.20;74.20
8103;DHT22;4094;49.948;11.574;2023-02-15T00:21:50;4.10;74.10
8103;DHT22;4094;49.948;11.574;2023-02-15T00:24:19;4.10;74.10
8103;DHT22;4094;49.948;11.574;2023-02-15T00:26:48;4.10;74.20
8103;DHT22;4094;49.948;11.574;2023-02-15T00:29:20;4.10;74.30
8103;DHT22;4094;49.948;11.574;2023-02-15T00:31:49;4.10;74.30
8103;DHT22;4094;49.948;11.574;2023-02-15T00:34:21;4.10;74.20
8103;DHT22;4094;49.948;11.574;2023-02-15T00:36:51;4.00;74.10
8103;DHT22;4094;49.948;11.574;2023-02-15T00:39:20;4.00;74.80
8103;DHT22;4094;49.948;11.574;2023-02-15T00:41:50;3.90;74.00
8103;DHT22;4094;49.948;11.574;2023-02-15T00:44:20;3.90;74.10
8103;DHT22;4094;49.948;11.574;2023-02-15T00:46:49;3.80;74.40
8103;DHT22;4094;49.948;11.574;2023-02-15T00:49:20;3.80;74.50
8103;DHT22;4094;49.948;11.574;2023-02-15T00:51:49;3.80;74.50
8103;DHT22;4094;49.948;11.574;2023-02-15T00:54:19;3.80;74.70
8103;DHT22;4094;49.948;11.574;2023-02-15T00:56:48;3.70;74.70
8103;DHT22;4094;49.948;11.574;2023-02-15T00:59:17;3.70;74.90
8103;DHT22;4094;49.948;11.574;2023-02-15T01:01:49;3.70;75.00
8103;DHT22;4094;49.948;11.574;2023-02-15T01:04:19;3.70;75.00
8103;DHT22;4094;49.948;11.574;2023-02-15T01:06:48;3.70;75.00
8103;DHT22;4094;49.948;11.574;2023-02-15T01:09:17;3.70;74.90
8103;DHT22;4094;49.948;11.574;2023-02-15T01:11:46;3.70;75.00
8103;DHT22;4094;49.948;11.574;2023-02-15T01:14:15;3.70;75.20
8103;DHT22;4094;49.948;11.574;2023-02-15T01:16:44;3.70;75.20
8103;DHT22;4094;49.948;11.574;2023-02-15T01:19:14;3.70;75.10
8103;DHT22;4094;49.948;11.574;2023-02-15T01:21:43;3.80;75.20
8103;DHT22;4094;49.948;11.574;2023-02-15T01:24:13;3.80;75.20
8103;DHT22;4094;49.948;11.574;2023-02-15T01:26:42;3.80;75.10
8103;DHT22;4094;49.948;11.574;2023-02-15T01:29:11;3.80;74.80
8103;DHT22;4094;49.948;11.574;2023-02-15T01:31:41;3.80;74.70
8103;DHT22;4094;49.948;11.574;2023-02-15T01:34:10;3.80;74.60
8103;DHT22;4094;49.948;11.574;2023-02-15T01:36:40;3.80;74.60
8103;DHT22;4094;49.948;11.574;2023-02-15T01:39:09;3.70;74.60
8103;DHT22;4094;49.948;11.574;2023-02-15T01:41:38;3.70;74.70
8103;DHT22;4094;49.948;11.574;2023-02-15T01:44:45;3.70;74.70
8103;DHT22;4094;49.948;11.574;2023-02-15T01:47:16;3.70;74.70
8103;DHT22;4094;49.948;11.574;2023-02-15T01:49:47;3.70;74.80
8103;DHT22;4094;49.948;11.574;2023-02-15T01:52:19;3.70;74.90
8103;DHT22;4094;49.948;11.574;2023-02-15T01:54:50;3.60;74.60
8103;DHT22;4094;49.948;11.574;2023-02-15T01:57:22;3.60;74.70
8103;DHT22;4094;49.948;11.574;2023-02-15T01:59:56;3.60;74.70
8103;DHT22;4094;49.948;11.574;2023-02-15T02:02:27;3.60;74.70
8103;DHT22;4094;49.948;11.574;2023-02-15T02:04:59;3.60;74.60
8103;DHT22;4094;49.948;11.574;2023-02-15T02:07:34;3.60;74.70
8103;DHT22;4094;49.948;11.574;2023-02-15T02:10:06;3.60;74.70
8103;DHT22;4094;49.948;11.574;2023-02-15T02:12:38;3.60;74.70
8103;DHT22;4094;49.948;11.574;2023-02-15T02:15:09;3.50;74.50
8103;DHT22;4094;49.948;11.574;2023-02-15T02:17:46;3.50;74.70
8103;DHT22;4094;49.948;11.574;2023-02-15T02:20:31;3.50;74.70
8103;DHT22;4094;49.948;11.574;2023-02-15T02:23:35;3.50;74.60
8103;DHT22;4094;49.948;11.574;2023-02-15T02:26:27;3.50;74.70
8103;DHT22;4094;49.948;11.574;2023-02-15T02:29:37;3.50;74.90
8103;DHT22;4094;49.948;11.574;2023-02-15T02:35:29;3.50;75.00
8103;DHT22;4094;49.948;11.574;2023-02-15T02:38:05;3.50;74.80
8103;DHT22;4094;49.948;11.574;2023-02-15T02:40:43;3.50;74.80
8103;DHT22;4094;49.948;11.574;2023-02-15T02:43:21;3.60;75.20
8103;DHT22;4094;49.948;11.574;2023-02-15T02:45:58;3.60;75.20
8103;DHT22;4094;49.948;11.574;2023-02-15T02:48:33;3.60;75.20
8103;DHT22;4094;49.948;11.574;2023-02-15T02:51:03;3.60;74.80
8103;DHT22;4094;49.948;11.574;2023-02-15T02:53:33;3.70;74.40
8103;DHT22;4094;49.948;11.574;2023-02-15T02:56:06;3.70;74.20
8103;DHT22;4094;49.948;11.574;2023-02-15T02:58:41;3.70;74.10
8103;DHT22;4094;49.948;11.574;2023-02-15T03:01:15;3.70;74.00
8103;DHT22;4094;49.948;11.574;2023-02-15T03:03:47;3.60;73.80
8103;DHT22;4094;49.948;11.574;2023-02-15T03:06:21;3.60;74.50
8103;DHT22;4094;49.948;11.574;2023-02-15T03:08:55;3.50;73.70
8103;DHT22;4094;49.948;11.574;2023-02-15T03:11:26;3.50;73.60
8103;DHT22;4094;49.948;11.574;2023-02-15T03:13:55;3.40;73.70
8103;DHT22;4094;49.948;11.574;2023-02-15T03:16:26;3.40;73.90
8103;DHT22;4094;49.948;11.574;2023-02-15T03:18:58;3.30;74.20
8103;DHT22;4094;49.948;11.574;2023-02-15T03:21:34;3.30;74.50
8103;DHT22;4094;49.948;11.574;2023-02-15T03:24:10;3.30;74.50
8103;DHT22;4094;49.948;11.574;2023-02-15T03:26:45;3.30;74.70
8103;DHT22;4094;49.948;11.574;2023-02-15T03:29:17;3.40;74.90
8103;DHT22;4094;49.948;11.574;2023-02-15T03:31:55;3.30;74.70
8103;DHT22;4094;49.948;11.574;2023-02-15T03:34:25;3.40;74.90
8103;DHT22;4094;49.948;11.574;2023-02-15T03:37:03;3.40;74.80
8103;DHT22;4094;49.948;11.574;2023-02-15T03:39:39;3.40;74.90
8103;DHT22;4094;49.948;11.574;2023-02-15T03:42:14;3.40;74.60
8103;DHT22;4094;49.948;11.574;2023-02-15T03:44:51;3.40;74.40
8103;DHT22;4094;49.948;11.574;2023-02-15T03:47:26;3.40;74.30
8103;DHT22;4094;49.948;11.574;2023-02-15T03:49:59;3.40;74.20
8103;DHT22;4094;49.948;11.574;2023-02-15T03:52:31;3.40;74.30
8103;DHT22;4094;49.948;11.574;2023-02-15T03:55:02;3.40;74.30
8103;DHT22;4094;49.948;11.574;2023-02-15T03:57:31;3.50;74.40
8103;DHT22;4094;49.948;11.574;2023-02-15T04:00:23;3.50;74.40
8103;DHT22;4094;49.948;11.574;2023-02-15T04:03:21;3.50;74.40
8103;DHT22;4094;49.948;11.574;2023-02-15T04:05:51;3.50;74.00
8103;DHT22;4094;49.948;11.574;2023-02-15T04:08:21;3.60;73.90
8103;DHT22;4094;49.948;11.574;2023-02-15T04:11:10;3.60;73.90
8103;DHT22;4094;49.948;11.574;2023-02-15T04:13:40;3.60;73.90
8103;DHT22;4094;49.948;11.574;2023-02-15T04:16:09;3.60;74.10
8103;DHT22;4094;49.948;11.574;2023-02-15T04:18:40;3.60;73.90
8103;DHT22;4094;49.948;11.574;2023-02-15T04:21:29;3.70;73.80
8103;DHT22;4094;49.948;11.574;2023-02-15T04:24:17;3.70;73.70
8103;DHT22;4094;49.948;11.574;2023-02-15T04:27:04;3.70;73.70
8103;DHT22;4094;49.948;11.574;2023-02-15T04:29:34;3.70;73.60
8103;DHT22;4094;49.948;11.574;2023-02-15T04:32:03;3.70;73.30
8103;DHT22;4094;49.948;11.574;2023-02-15T04:34:32;3.70;73.20
8103;DHT22;4094;49.948;11.574;2023-02-15T04:37:01;3.70;73.30
8103;DHT22;4094;49.948;11.574;2023-02-15T04:39:32;3.70;73.40
8103;DHT22;4094;49.948;11.574;2023-02-15T04:42:00;3.70;73.10
8103;DHT22;4094;49.948;11.574;2023-02-15T04:44:29;3.70;73.00
8103;DHT22;4094;49.948;11.574;2023-02-15T04:46:58;3.70;73.10
8103;DHT22;4094;49.948;11.574;2023-02-15T04:49:27;3.60;73.20
8103;DHT22;4094;49.948;11.574;2023-02-15T04:51:56;3.60;73.20
8103;DHT22;4094;49.948;11.574;2023-02-15T04:54:25;3.60;73.20
8103;DHT22;4094;49.948;11.574;2023-02-15T04:56:55;3.60;73.40
8103;DHT22;4094;49.948;11.574;2023-02-15T04:59:24;3.60;73.30
8103;DHT22;4094;49.948;11.574;2023-02-15T05:01:53;3.60;73.20
8103;DHT22;4094;49.948;11.574;2023-02-15T05:04:22;3.60;73.20
8103;DHT22;4094;49.948;11.574;2023-02-15T05:06:51;3.60;73.10
8103;DHT22;4094;49.948;11.574;2023-02-15T05:09:20;3.60;73.10
8103;DHT22;4094;49.948;11.574;2023-02-15T05:11:48;3.60;73.00
8103;DHT22;4094;49.948;11.574;2023-02-15T05:14:19;3.60;73.20
8103;DHT22;4094;49.948;11.574;2023-02-15T05:16:48;3.60;73.40
8103;DHT22;4094;49.948;11.574;2023-02-15T05:19:17;3.60;73.30
8103;DHT22;4094;49.948;11.574;2023-02-15T05:21:46;3.70;73.30
8103;DHT22;4094;49.948;11.574;2023-02-15T05:24:15;3.70;73.00
8103;DHT22;4094;49.948;11.574;2023-02-15T05:27:02;3.60;72.70
8103;DHT22;4094;49.948;11.574;2023-02-15T05:29:50;3.60;72.60
8103;DHT22;4094;49.948;11.574;2023-02-15T05:32:19;3.60;72.70
8103;DHT22;4094;49.948;11.574;2023-02-15T05:34:49;3.50;72.70
8103;DHT22;4094;49.948;11.574;2023-02-15T05:37:18;3.50;72.80
8103;DHT22;4094;49.948;11.574;2023-02-15T05:39:47;3.50;73.00
8103;DHT22;4094;49.948;11.574;2023-02-15T05:42:16;3.50;73.10
8103;DHT22;4094;49.948;11.574;2023-02-15T05:44:46;3.50;73.00
8103;DHT22;4094;49.948;11.574;2023-02-15T05:47:16;3.50;72.80
8103;DHT22;4094;49.948;11.574;2023-02-15T05:49:46;3.40;72.60
8103;DHT22;4094;49.948;11.574;2023-02-15T05:52:15;3.40;72.60
8103;DHT22;4094;49.948;11.574;2023-02-15T05:54:44;3.30;72.60
8103;DHT22;4094;49.948;11.574;2023-02-15T05:57:13;3.30;72.90
8103;DHT22;4094;49.948;11.574;2023-02-15T05:59:42;3.20;73.10
8103;DHT22;4094;49.948;11.574;2023-02-15T06:02:12;3.20;73.10
8103;DHT22;4094;49.948;11.574;2023-02-15T06:04:43;3.20;73.20
8103;DHT22;4094;49.948;11.574;2023-02-15T06:07:12;3.20;73.20
8103;DHT22;4094;49.948;11.574;2023-02-15T06:09:41;3.20;73.20
8103;DHT22;4094;49.948;11.574;2023-02-15T06:12:10;3.20;73.40
8103;DHT22;4094;49.948;11.574;2023-02-15T06:14:39;3.20;73.40
8103;DHT22;4094;49.948;11.574;2023-02-15T06:17:08;3.20;73.40
8103;DHT22;4094;49.948;11.574;2023-02-15T06:19:37;3.10;73.20
8103;DHT22;4094;49.948;11.574;2023-02-15T06:22:07;3.10;73.10
8103;DHT22;4094;49.948;11.574;2023-02-15T06:24:36;3.10;73.20
8103;DHT22;4094;49.948;11.574;2023-02-15T06:27:05;3.10;73.30
8103;DHT22;4094;49.948;11.574;2023-02-15T06:29:34;3.10;73.40
8103;DHT22;4094;49.948;11.574;2023-02-15T06:32:04;3.10;73.40
8103;DHT22;4094;49.948;11.574;2023-02-15T06:34:33;3.00;73.30
8103;DHT22;4094;49.948;11.574;2023-02-15T06:37:02;3.00;73.40
8103;DHT22;4094;49.948;11.574;2023-02-15T06:39:33;3.00;73.60
8103;DHT22;4094;49.948;11.574;2023-02-15T06:42:02;3.00;73.70
8103;DHT22;4094;49.948;11.574;2023-02-15T06:44:31;2.90;73.90
8103;DHT22;4094;49.948;11.574;2023-02-15T06:47:00;2.90;74.00
8103;DHT22;4094;49.948;11.574;2023-02-15T06:49:29;2.90;74.30
8103;DHT22;4094;49.948;11.574;2023-02-15T06:51:58;3.00;74.40
8103;DHT22;4094;49.948;11.574;2023-02-15T06:54:27;3.00;74.40
8103;DHT22;4094;49.948;11.574;2023-02-15T06:56:58;3.00;74.00
8103;DHT22;4094;49.948;11.574;2023-02-15T06:59:27;3.10;74.00
8103;DHT22;4094;49.948;11.574;2023-02-15T07:01:56;3.10;74.10
8103;DHT22;4094;49.948;11.574;2023-02-15T07:04:25;3.10;74.20
8103;DHT22;4094;49.948;11.574;2023-02-15T07:06:56;3.10;74.10
8103;DHT22;4094;49.948;11.574;2023-02-15T07:09:26;3.10;74.20
8103;DHT22;4094;49.948;11.574;2023-02-15T07:11:55;3.10;73.90
8103;DHT22;4094;49.948;11.574;2023-02-15T07:14:43;3.20;73.80
8103;DHT22;4094;49.948;11.574;2023-02-15T07:17:12;3.10;73.60
8103;DHT22;4094;49.948;11.574;2023-02-15T07:20:01;3.10;73.80
8103;DHT22;4094;49.948;11.574;2023-02-15T07:22:31;3.10;73.80
8103;DHT22;4094;49.948;11.574;2023-02-15T07:25:03;3.20;73.80
8103;DHT22;4094;49.948;11.574;2023-02-15T07:27:32;3.10;73.90
8103;DHT22;4094;49.948;11.574;2023-02-15T07:30:04;3.20;74.20
8103;DHT22;4094;49.948;11.574;2023-02-15T07:32:34;3.20;74.10
8103;DHT22;4094;49.948;11.574;2023-02-15T07:35:03;3.20;74.00
8103;DHT22;4094;49.948;11.574;2023-02-15T07:37:32;3.20;74.00
8103;DHT22;4094;49.948;11.574;2023-02-15T07:40:01;3.20;73.90
8103;DHT22;4094;49.948;11.574;2023-02-15T07:42:31;3.30;73.90
8103;DHT22;4094;49.948;11.574;2023-02-15T07:45:01;3.30;73.50
8103;DHT22;4094;49.948;11.574;2023-02-15T07:47:31;3.30;73.40
8103;DHT22;4094;49.948;11.574;2023-02-15T07:50:00;3.20;73.30
8103;DHT22;4094;49.948;11.574;2023-02-15T07:52:29;3.20;73.40
8103;DHT22;4094;49.948;11.574;2023-02-15T07:54:58;3.20;73.60
8103;DHT22;4094;49.948;11.574;2023-02-15T07:57:28;3.20;73.60
8103;DHT22;4094;49.948;11.574;2023-02-15T07:59:57;3.20;73.60
8103;DHT22;4094;49.948;11.574;2023-02-15T08:02:26;3.30;73.80
8103;DHT22;4094;49.948;11.574;2023-02-15T08:04:58;3.30;73.60
8103;DHT22;4094;49.948;11.574;2023-02-15T08:07:27;3.30;73.50
8103;DHT22;4094;49.948;11.574;2023-02-15T08:09:56;3.30;73.10
8103;DHT22;4094;49.948;11.574;2023-02-15T08:12:27;3.30;72.90
8103;DHT22;4094;49.948;11.574;2023-02-15T08:14:56;3.30;72.90
8103;DHT22;4094;49.948;11.574;2023-02-15T08:17:26;3.30;72.90
8103;DHT22;4094;49.948;11.574;2023-02-15T08:19:55;3.30;72.90
8103;DHT22;4094;49.948;11.574;2023-02-15T08:22:25;3.30;73.10
8103;DHT22;4094;49.948;11.574;2023-02-15T08:24:54;3.20;73.20
8103;DHT22;4094;49.948;11.574;2023-02-15T08:27:23;3.20;73.40
8103;DHT22;4094;49.948;11.574;2023-02-15T08:29:54;3.20;73.40
8103;DHT22;4094;49.948;11.574;2023-02-15T08:32:23;3.20;73.40
8103;DHT22;4094;49.948;11.574;2023-02-15T08:34:52;3.20;73.30
8103;DHT22;4094;49.948;11.574;2023-02-15T08:37:21;3.20;73.80
8103;DHT22;4094;49.948;11.574;2023-02-15T08:39:52;3.20;74.10
8103;DHT22;4094;49.948;11.574;2023-02-15T08:42:21;3.30;74.10
8103;DHT22;4094;49.948;11.574;2023-02-15T08:44:51;3.30;74.00
8103;DHT22;4094;49.948;11.574;2023-02-15T08:47:20;3.40;74.10
8103;DHT22;4094;49.948;11.574;2023-02-15T08:49:49;3.50;74.00
8103;DHT22;4094;49.948;11.574;2023-02-15T08:52:18;3.50;73.60
8103;DHT22;4094;49.948;11.574;2023-02-15T08:54:48;3.50;73.00
8103;DHT22;4094;49.948;11.574;2023-02-15T08:57:18;3.50;72.50
8103;DHT22;4094;49.948;11.574;2023-02-15T08:59:47;3.50;72.70
8103;DHT22;4094;49.948;11.574;2023-02-15T09:02:18;3.50;72.80
8103;DHT22;4094;49.948;11.574;2023-02-15T09:04:48;3.50;73.00
8103;DHT22;4094;49.948;11.574;2023-02-15T09:07:17;3.60;72.90
8103;DHT22;4094;49.948;11.574;2023-02-15T09:09:46;3.60;72.80
8103;DHT22;4094;49.948;11.574;2023-02-15T09:12:17;3.60;72.80
8103;DHT22;4094;49.948;11.574;2023-02-15T09:14:46;3.70;73.00
8103;DHT22;4094;49.948;11.574;2023-02-15T09:17:15;3.70;72.80
8103;DHT22;4094;49.948;11.574;2023-02-15T09:19:44;3.80;72.70
8103;DHT22;4094;49.948;11.574;2023-02-15T09:22:14;3.80;72.50
8103;DHT22;4094;49.948;11.574;2023-02-15T09:24:44;3.90;72.30
8103;DHT22;4094;49.948;11.574;2023-02-15T09:27:14;3.90;72.50
8103;DHT22;4094;49.948;11.574;2023-02-15T09:29:44;3.90;72.70
8103;DHT22;4094;49.948;11.574;2023-02-15T09:32:13;4.00;72.80
8103;DHT22;4094;49.948;11.574;2023-02-15T09:34:44;4.10;72.60
8103;DHT22;4094;49.948;11.574;2023-02-15T09:37:13;4.10;72.50
8103;DHT22;4094;49.948;11.574;2023-02-15T09:39:43;4.20;72.60
8103;DHT22;4094;49.948;11.574;2023-02-15T09:42:29;4.20;72.60
8103;DHT22;4094;49.948;11.574;2023-02-15T09:45:20;4.30;72.30
8103;DHT22;4094;49.948;11.574;2023-02-15T09:48:23;4.40;71.60
8103;DHT22;4094;49.948;11.574;2023-02-15T09:51:07;4.40;71.30
8103;DHT22;4094;49.948;11.574;2023-02-15T09:53:58;4.40;71.00
8103;DHT22;4094;49.948;11.574;2023-02-15T09:56:33;4.40;71.00
8103;DHT22;4094;49.948;11.574;2023-02-15T09:59:14;4.30;71.00
8103;DHT22;4094;49.948;11.574;2023-02-15T10:01:52;4.30;71.20
8103;DHT22;4094;49.948;11.574;2023-02-15T10:04:36;4.30;71.50
8103;DHT22;4094;49.948;11.574;2023-02-15T10:07:15;4.30;71.60
8103;DHT22;4094;49.948;11.574;2023-02-15T10:09:58;4.40;71.70
8103;DHT22;4094;49.948;11.574;2023-02-15T10:12:53;4.40;71.40
8103;DHT22;4094;49.948;11.574;2023-02-15T10:15:42;4.40;71.40
8103;DHT22;4094;49.948;11.574;2023-02-15T10:18:46;4.50;71.70
8103;DHT22;4094;49.948;11.574;2023-02-15T10:21:26;4.60;71.80
8103;DHT22;4094;49.948;11.574;2023-02-15T10:27:02;4.70;71.90
8103;DHT22;4094;49.948;11.574;2023-02-15T10:29:37;4.80;71.90
8103;DHT22;4094;49.948;11.574;2023-02-15T10:32:16;4.90;71.60
8103;DHT22;4094;49.948;11.574;2023-02-15T10:34:56;4.90;71.40
8103;DHT22;4094;49.948;11.574;2023-02-15T10:37:49;5.00;71.50
8103;DHT22;4094;49.948;11.574;2023-02-15T10:40:28;5.00;71.40
8103;DHT22;4094;49.948;11.574;2023-02-15T10:43:11;5.10;71.10
8103;DHT22;4094;49.948;11.574;2023-02-15T10:45:52;5.10;71.00
8103;DHT22;4094;49.948;11.574;2023-02-15T10:48:59;5.10;71.10
8103;DHT22;4094;49.948;11.574;2023-02-15T10:51:40;5.20;71.20
8103;DHT22;4094;49.948;11.574;2023-02-15T10:54:23;5.20;71.30
8103;DHT22;4094;49.948;11.574;2023-02-15T10:57:01;5.30;71.30
8103;DHT22;4094;49.948;11.574;2023-02-15T10:59:41;5.40;71.20
8103;DHT22;4094;49.948;11.574;2023-02-15T11:02:20;5.40;70.60
8103;DHT22;4094;49.948;11.574;2023-02-15T11:04:58;5.40;70.20
8103;DHT22;4094;49.948;11.574;2023-02-15T11:07:34;5.50;70.30
8103;DHT22;4094;49.948;11.574;2023-02-15T11:10:18;5.50;70.50
8103;DHT22;4094;49.948;11.574;2023-02-15T11:12:51;5.50;70.50
8103;DHT22;4094;49.948;11.574;2023-02-15T11:15:26;5.50;70.50
8103;DHT22;4094;49.948;11.574;2023-02-15T11:17:59;5.60;70.50
8103;DHT22;4094;49.948;11.574;2023-02-15T11:20:34;5.60;70.40
8103;DHT22;4094;49.948;11.574;2023-02-15T11:23:12;5.60;70.40
8103;DHT22;4094;49.948;11.574;2023-02-15T11:25:46;5.70;70.20
8103;DHT22;4094;49.948;11.574;2023-02-15T11:28:19;5.70;70.20
8103;DHT22;4094;49.948;11.574;2023-02-15T11:30:54;5.80;70.10
8103;DHT22;4094;49.948;11.574;2023-02-15T11:33:26;5.80;70.10
8103;DHT22;4094;49.948;11.574;2023-02-15T11:36:00;5.90;70.00
8103;DHT22;4094;49.948;11.574;2023-02-15T11:38:34;5.90;70.20
8103;DHT22;4094;49.948;11.574;2023-02-15T11:41:05;6.00;70.00
8103;DHT22;4094;49.948;11.574;2023-02-15T11:43:39;6.00;69.50
8103;DHT22;4094;49.948;11.574;2023-02-15T11:46:12;6.00;69.50
8103;DHT22;4094;49.948;11.574;2023-02-15T11:48:42;6.10;69.40
8103;DHT22;4094;49.948;11.574;2023-02-15T11:51:14;6.10;69.20
8103;DHT22;4094;49.948;11.574;2023-02-15T11:53:46;6.10;69.40
8103;DHT22;4094;49.948;11.574;2023-02-15T11:56:17;6.10;69.20
8103;DHT22;4094;49.948;11.574;2023-02-15T11:58:49;6.10;69.50
8103;DHT22;4094;49.948;11.574;2023-02-15T12:01:22;6.10;69.30
8103;DHT22;4094;49.948;11.574;2023-02-15T12:03:56;6.10;69.20
8103;DHT22;4094;49.948;11.574;2023-02-15T12:06:28;6.10;69.40
8103;DHT22;4094;49.948;11.574;2023-02-15T12:09:04;6.10;69.40
8103;DHT22;4094;49.948;11.574;2023-02-15T12:11:36;6.10;69.20
8103;DHT22;4094;49.948;11.574;2023-02-15T12:14:08;6.10;69.30
8103;DHT22;4094;49.948;11.574;2023-02-15T12:16:43;6.20;69.40
8103;DHT22;4094;49.948;11.574;2023-02-15T12:19:27;6.20;69.10
8103;DHT22;4094;49.948;11.574;2023-02-15T12:21:57;6.20;68.90
8103;DHT22;4094;49.948;11.574;2023-02-15T12:24:31;6.20;69.00
8103;DHT22;4094;49.948;11.574;2023-02-15T12:27:03;6.20;69.30
8103;DHT22;4094;49.948;11.574;2023-02-15T12:29:39;6.20;69.70
8103;DHT22;4094;49.948;11.574;2023-02-15T12:32:17;6.30;69.90
8103;DHT22;4094;49.948;11.574;2023-02-15T12:34:47;6.50;69.70
8103;DHT22;4094;49.948;11.574;2023-02-15T12:37:21;6.60;69.80
8103;DHT22;4094;49.948;11.574;2023-02-15T12:39:55;6.70;69.20
8103;DHT22;4094;49.948;11.574;2023-02-15T12:42:25;6.80;69.60
8103;DHT22;4094;49.948;11.574;2023-02-15T12:44:59;7.00;70.60
8103;DHT22;4094;49.948;11.574;2023-02-15T12:47:29;7.30;70.80
8103;DHT22;4094;49.948;11.574;2023-02-15T12:50:11;7.70;71.30
8103;DHT22;4094;49.948;11.574;2023-02-15T12:52:46;8.40;70.80
8103;DHT22;4094;49.948;11.574;2023-02-15T12:55:24;9.00;70.50
8103;DHT22;4094;49.948;11.574;2023-02-15T12:58:15;9.50;67.40
8103;DHT22;4094;49.948;11.574;2023-02-15T13:00:45;10.00;64.60
8103;DHT22;4094;49.948;11.574;2023-02-15T13:03:20;10.40;64.20
8103;DHT22;4094;49.948;11.574;2023-02-15T13:05:54;10.60;63.20
8103;DHT22;4094;49.948;11.574;2023-02-15T13:08:28;10.80;62.70
8103;DHT22;4094;49.948;11.574;2023-02-15T13:11:02;10.90;61.80
8103;DHT22;4094;49.948;11.574;2023-02-15T13:13:33;11.10;61.50
8103;DHT22;4094;49.948;11.574;2023-02-15T13:16:07;11.20;60.80
8103;DHT22;4094;49.948;11.574;2023-02-15T13:18:41;11.30;60.80
8103;DHT22;4094;49.948;11.574;2023-02-15T13:21:12;11.30;59.90
8103;DHT22;4094;49.948;11.574;2023-02-15T13:23:45;11.30;59.30
8103;DHT22;4094;49.948;11.574;2023-02-15T13:26:20;11.30;59.50
8103;DHT22;4094;49.948;11.574;2023-02-15T13:28:52;11.40;59.90
8103;DHT22;4094;49.948;11.574;2023-02-15T13:31:24;11.60;59.00
8103;DHT22;4094;49.948;11.574;2023-02-15T13:34:00;11.80;59.10
8103;DHT22;4094;49.948;11.574;2023-02-15T13:36:37;11.90;58.20
8103;DHT22;4094;49.948;11.574;2023-02-15T13:39:23;12.00;57.60
8103;DHT22;4094;49.948;11.574;2023-02-15T13:42:01;11.90;57.30
8103;DHT22;4094;49.948;11.574;2023-02-15T13:45:00;11.70;57.20
8103;DHT22;4094;49.948;11.574;2023-02-15T13:47:36;11.50;57.20
8103;DHT22;4094;49.948;11.574;2023-02-15T13:50:28;11.20;57.30
8103;DHT22;4094;49.948;11.574;2023-02-15T13:53:12;10.90;57.40
8103;DHT22;4094;49.948;11.574;2023-02-15T13:55:50;10.50;58.40
8103;DHT22;4094;49.948;11.574;2023-02-15T13:58:46;10.20;58.20
8103;DHT22;4094;49.948;11.574;2023-02-15T14:01:20;9.90;58.40
8103;DHT22;4094;49.948;11.574;2023-02-15T14:07:05;9.30;59.20
8103;DHT22;4094;49.948;11.574;2023-02-15T14:09:46;9.00;59.70
8103;DHT22;4094;49.948;11.574;2023-02-15T14:12:32;8.80;60.00
8103;DHT22;4094;49.948;11.574;2023-02-15T14:15:13;8.50;60.50
8103;DHT22;4094;49.948;11.574;2023-02-15T14:17:53;8.40;61.30
8103;DHT22;4094;49.948;11.574;2023-02-15T14:20:29;8.20;61.70
8103;DHT22;4094;49.948;11.574;2023-02-15T14:23:05;8.10;62.10
8103;DHT22;4094;49.948;11.574;2023-02-15T14:25:42;8.10;62.50
8103;DHT22;4094;49.948;11.574;2023-02-15T14:28:16;8.00;62.80
8103;DHT22;4094;49.948;11.574;2023-02-15T14:30:51;7.90;62.90
8103;DHT22;4094;49.948;11.574;2023-02-15T14:33:31;7.80;63.20
8103;DHT22;4094;49.948;11.574;2023-02-15T14:36:05;7.80;63.40
8103;DHT22;4094;49.948;11.574;2023-02-15T14:38:48;7.70;63.60
8103;DHT22;4094;49.948;11.574;2023-02-15T14:41:23;7.70;63.70
8103;DHT22;4094;49.948;11.574;2023-02-15T14:44:00;7.60;63.90
8103;DHT22;4094;49.948;11.574;2023-02-15T14:46:34;7.60;64.30
8103;DHT22;4094;49.948;11.574;2023-02-15T14:49:10;7.50;64.40
8103;DHT22;4094;49.948;11.574;2023-02-15T14:54:55;7.40;64.70
8103;DHT22;4094;49.948;11.574;2023-02-15T14:57:30;7.30;64.80
8103;DHT22;4094;49.948;11.574;2023-02-15T15:00:36;7.30;64.80
8103;DHT22;4094;49.948;11.574;2023-02-15T15:03:22;7.30;65.10
8103;DHT22;4094;49.948;11.574;2023-02-15T15:06:02;7.30;65.10
8103;DHT22;4094;49.948;11.574;2023-02-15T15:08:36;7.30;65.10
8103;DHT22;4094;49.948;11.574;2023-02-15T15:11:38;7.20;65.10
8103;DHT22;4094;49.948;11.574;2023-02-15T15:14:37;7.20;65.10
8103;DHT22;4094;49.948;11.574;2023-02-15T15:17:10;7.10;65.70
8103;DHT22;4094;49.948;11.574;2023-02-15T15:20:12;7.10;65.50
8103;DHT22;4094;49.948;11.574;2023-02-15T15:22:43;7.00;65.70
8103;DHT22;4094;49.948;11.574;2023-02-15T15:25:40;7.00;65.80
8103;DHT22;4094;49.948;11.574;2023-02-15T15:31:19;6.90;66.10
8103;DHT22;4094;49.948;11.574;2023-02-15T15:34:17;6.90;66.20
8103;DHT22;4094;49.948;11.574;2023-02-15T15:46:28;6.80;66.50
8103;DHT22;4094;49.948;11.574;2023-02-15T15:49:08;6.70;66.50
8103;DHT22;4094;49.948;11.574;2023-02-15T15:51:40;6.70;66.60
8103;DHT22;4094;49.948;11.574;2023-02-15T15:54:15;6.70;66.70
8103;DHT22;4094;49.948;11.574;2023-02-15T15:56:48;6.60;66.90
8103;DHT22;4094;49.948;11.574;2023-02-15T15:59:20;6.60;66.90
8103;DHT22;4094;49.948;11.574;2023-02-15T16:01:52;6.60;67.70
8103;DHT22;4094;49.948;11.574;2023-02-15T16:04:25;6.50;66.80
8103;DHT22;4094;49.948;11.574;2023-02-15T16:06:55;6.50;66.80
8103;DHT22;4094;49.948;11.574;2023-02-15T16:09:25;6.40;67.20
8103;DHT22;4094;49.948;11.574;2023-02-15T16:11:57;6.30;67.30
8103;DHT22;4094;49.948;11.574;2023-02-15T16:14:30;6.30;67.50
8103;DHT22;4094;49.948;11.574;2023-02-15T16:17:04;6.20;67.60
8103;DHT22;4094;49.948;11.574;2023-02-15T16:19:37;6.20;67.80
8103;DHT22;4094;49.948;11.574;2023-02-15T16:22:11;6.10;67.80
8103;DHT22;4094;49.948;11.574;2023-02-15T16:25:19;6.10;68.10
8103;DHT22;4094;49.948;11.574;2023-02-15T16:27:53;6.00;68.20
8103;DHT22;4094;49.948;11.574;2023-02-15T16:30:26;6.00;68.30
8103;DHT22;4094;49.948;11.574;2023-02-15T16:33:05;6.00;68.50
8103;DHT22;4094;49.948;11.574;2023-02-15T16:35:35;5.90;68.70
8103;DHT22;4094;49.948;11.574;2023-02-15T16:38:08;5.90;68.70
8103;DHT22;4094;49.948;11.574;2023-02-15T16:40:46;5.90;68.90
8103;DHT22;4094;49.948;11.574;2023-02-15T16:43:23;5.90;68.90
8103;DHT22;4094;49.948;11.574;2023-02-15T16:46:03;5.90;68.90
8103;DHT22;4094;49.948;11.574;2023-02-15T16:48:39;5.80;69.10
8103;DHT22;4094;49.948;11.574;2023-02-15T16:51:19;5.80;69.30
8103;DHT22;4094;49.948;11.574;2023-02-15T16:53:49;5.80;69.70
8103;DHT22;4094;49.948;11.574;2023-02-15T16:56:23;5.70;69.40
8103;DHT22;4094;49.948;11.574;2023-02-15T16:58:54;5.70;69.40
8103;DHT22;4094;49.948;11.574;2023-02-15T17:01:27;5.70;69.40
8103;DHT22;4094;49.948;11.574;2023-02-15T17:04:15;5.70;69.50
8103;DHT22;4094;49.948;11.574;2023-02-15T17:06:58;5.70;69.50
8103;DHT22;4094;49.948;11.574;2023-02-15T17:09:28;5.60;69.40
8103;DHT22;4094;49.948;11.574;2023-02-15T17:11:57;5.50;69.40